createdAt,value
2022-08-03T00:00:36.898Z,23.50
2022-08-03T00:03:07.355Z,23.50
2022-08-03T00:05:36.094Z,23.50
2022-08-03T00:08:04.896Z,23.50
2022-08-03T00:10:35.567Z,23.50
2022-08-03T00:13:04.018Z,23.50
2022-08-03T00:15:32.818Z,23.50
2022-08-03T00:18:01.507Z,23.60
2022-08-03T00:20:31.552Z,23.50
2022-08-03T00:23:00.195Z,23.50
2022-08-03T00:25:28.853Z,23.50
2022-08-03T00:27:57.360Z,23.60
2022-08-03T00:30:29.415Z,23.60
2022-08-03T00:32:59.680Z,23.50
2022-08-03T00:35:41.104Z,23.50
2022-08-03T00:38:19.099Z,23.50
2022-08-03T00:40:48.331Z,23.40
2022-08-03T00:43:16.896Z,23.40
2022-08-03T00:45:45.531Z,23.40
2022-08-03T00:48:29.625Z,23.30
2022-08-03T00:51:02.273Z,23.30
2022-08-03T00:53:32.432Z,23.20
2022-08-03T00:56:01.227Z,23.20
2022-08-03T00:58:29.869Z,23.10
2022-08-03T01:00:59.205Z,23.10
2022-08-03T01:03:27.904Z,23.00
2022-08-03T01:05:59.532Z,23.10
2022-08-03T01:08:53.959Z,22.90
2022-08-03T01:11:28.810Z,22.80
2022-08-03T01:14:20.014Z,22.80
2022-08-03T01:16:53.763Z,22.70
2022-08-03T01:19:33.014Z,22.70
2022-08-03T01:22:11.990Z,22.70
2022-08-03T01:24:47.940Z,22.60
2022-08-03T01:27:19.546Z,22.60
2022-08-03T01:29:58.432Z,22.70
2022-08-03T01:32:58.850Z,22.70
2022-08-03T01:35:19.903Z,22.70
2022-08-03T01:37:51.510Z,22.80
2022-08-03T01:40:21.901Z,22.80
2022-08-03T01:42:51.816Z,22.80
2022-08-03T01:45:22.251Z,22.80
2022-08-03T01:47:51.247Z,22.90
2022-08-03T01:50:22.402Z,22.90
2022-08-03T01:52:51.911Z,22.90
2022-08-03T01:55:21.406Z,23.00
2022-08-03T01:58:05.351Z,23.00
2022-08-03T02:00:37.880Z,23.00
2022-08-03T02:03:25.337Z,23.00
2022-08-03T02:06:17.834Z,23.00
2022-08-03T02:08:44.584Z,23.00
2022-08-03T02:11:14.031Z,23.00
2022-08-03T02:13:43.196Z,22.90
2022-08-03T02:16:14.228Z,22.90
2022-08-03T02:18:43.700Z,23.00
2022-08-03T02:21:12.855Z,23.00
2022-08-03T02:24:20.218Z,22.90
2022-08-03T02:26:49.970Z,22.90
2022-08-03T02:29:21.674Z,22.90
2022-08-03T02:32:13.977Z,22.90
2022-08-03T02:34:43.772Z,22.90
2022-08-03T02:37:13.350Z,22.90
2022-08-03T02:39:43.124Z,22.90
2022-08-03T02:42:13.181Z,22.90
2022-08-03T02:44:43.992Z,22.80
2022-08-03T02:47:15.727Z,22.80
2022-08-03T02:49:50.464Z,22.70
2022-08-03T02:52:21.508Z,22.60
2022-08-03T02:54:51.422Z,22.60
2022-08-03T02:57:20.871Z,22.60
2022-08-03T02:59:49.513Z,22.50
2022-08-03T03:02:20.170Z,22.50
2022-08-03T03:05:50.629Z,22.40
2022-08-03T03:07:52.248Z,22.40
2022-08-03T03:10:23.120Z,22.30
2022-08-03T03:12:52.750Z,22.30
2022-08-03T03:15:21.363Z,22.20
2022-08-03T03:17:51.779Z,22.20
2022-08-03T03:20:41.173Z,22.20
2022-08-03T03:23:10.577Z,22.20
2022-08-03T03:25:39.705Z,22.20
2022-08-03T03:28:08.449Z,22.20
2022-08-03T03:30:36.967Z,22.10
2022-08-03T03:33:07.621Z,22.10
2022-08-03T03:35:39.119Z,22.20
2022-08-03T03:38:08.106Z,22.20
2022-08-03T03:40:37.014Z,22.20
2022-08-03T03:43:08.769Z,22.30
2022-08-03T03:45:37.474Z,22.40
2022-08-03T03:48:08.111Z,22.40
2022-08-03T03:50:37.503Z,22.50
2022-08-03T03:53:06.186Z,22.60
2022-08-03T03:55:38.103Z,22.70
2022-08-03T03:58:26.728Z,22.70
2022-08-03T04:00:55.486Z,22.80
2022-08-03T04:03:25.468Z,22.80
2022-08-03T04:06:11.573Z,22.90
2022-08-03T04:08:57.868Z,23.00
2022-08-03T04:11:47.313Z,23.00
2022-08-03T04:14:17.912Z,23.10
2022-08-03T04:16:48.547Z,23.20
2022-08-03T04:19:23.131Z,23.20
2022-08-03T04:21:53.532Z,23.30
2022-08-03T04:24:28.313Z,23.40
2022-08-03T04:26:57.835Z,23.40
2022-08-03T04:29:27.573Z,23.50
2022-08-03T04:31:56.707Z,23.50
2022-08-03T04:34:26.780Z,23.60
2022-08-03T04:37:03.206Z,23.60
2022-08-03T04:39:33.126Z,23.70
2022-08-03T04:42:07.848Z,23.70
2022-08-03T04:44:39.217Z,23.70
2022-08-03T04:47:08.270Z,23.80
2022-08-03T04:49:39.405Z,23.90
2022-08-03T04:52:10.307Z,23.80
2022-08-03T04:54:42.595Z,23.90
2022-08-03T04:57:22.013Z,23.80
2022-08-03T05:00:01.255Z,24.00
2022-08-03T05:02:31.071Z,24.00
2022-08-03T05:05:01.375Z,24.00
2022-08-03T05:07:35.606Z,24.10
2022-08-03T05:10:05.683Z,24.10
2022-08-03T05:12:44.230Z,24.20
2022-08-03T05:15:12.995Z,24.20
2022-08-03T05:17:41.679Z,24.30
2022-08-03T05:20:12.722Z,24.30
2022-08-03T05:22:41.404Z,24.40
2022-08-03T05:25:10.091Z,24.40
2022-08-03T05:27:46.439Z,24.50
2022-08-03T05:30:29.744Z,24.50
2022-08-03T05:33:03.654Z,24.60
2022-08-03T05:35:56.096Z,24.70
2022-08-03T05:38:28.596Z,24.70
2022-08-03T05:41:21.591Z,24.80
2022-08-03T05:43:47.039Z,24.90
2022-08-03T05:46:15.568Z,24.90
2022-08-03T05:48:44.252Z,25.00
2022-08-03T05:51:14.286Z,25.00
2022-08-03T05:53:43.179Z,25.10
2022-08-03T05:56:13.758Z,25.20
2022-08-03T05:58:43.663Z,25.20
2022-08-03T06:01:12.304Z,25.30
2022-08-03T06:03:40.930Z,25.30
2022-08-03T06:06:09.605Z,25.40
2022-08-03T06:08:39.677Z,25.50
2022-08-03T06:11:08.246Z,25.50
2022-08-03T06:13:36.954Z,25.60
2022-08-03T06:16:05.743Z,25.70
2022-08-03T06:18:34.355Z,25.70
2022-08-03T06:21:14.860Z,25.80
2022-08-03T06:23:54.875Z,25.90
2022-08-03T06:26:25.076Z,25.90
2022-08-03T06:28:54.656Z,26.00
2022-08-03T06:31:33.054Z,26.10
2022-08-03T06:34:33.070Z,26.20
2022-08-03T06:36:52.911Z,26.30
2022-08-03T06:39:23.967Z,26.30
2022-08-03T06:41:53.659Z,26.40
2022-08-03T06:44:22.335Z,26.50
2022-08-03T06:46:51.462Z,26.50
2022-08-03T06:49:20.378Z,26.50
2022-08-03T06:52:03.491Z,26.60
2022-08-03T06:54:37.600Z,26.60
2022-08-03T06:57:06.563Z,26.70
2022-08-03T07:00:09.451Z,26.70
2022-08-03T07:02:23.840Z,26.90
2022-08-03T07:04:57.178Z,26.90
2022-08-03T07:07:25.868Z,27.00
2022-08-03T07:09:57.640Z,27.00
2022-08-03T07:12:27.833Z,27.10
2022-08-03T07:15:00.687Z,27.20
2022-08-03T07:17:30.750Z,27.20
2022-08-03T07:19:59.598Z,27.30
2022-08-03T07:22:28.574Z,27.30
2022-08-03T07:24:58.737Z,27.40
2022-08-03T07:27:29.490Z,27.40
2022-08-03T07:29:58.823Z,27.50
2022-08-03T07:32:28.555Z,27.60
2022-08-03T07:35:00.628Z,27.60
2022-08-03T07:37:54.634Z,27.70
2022-08-03T07:40:31.668Z,27.80
2022-08-03T07:43:00.873Z,27.80
2022-08-03T07:45:29.473Z,27.90
2022-08-03T07:47:58.141Z,28.00
2022-08-03T07:50:26.844Z,28.10
2022-08-03T07:52:56.348Z,28.20
2022-08-03T07:55:26.784Z,28.20
2022-08-03T07:58:05.512Z,28.30
2022-08-03T08:00:34.244Z,28.40
2022-08-03T08:03:02.726Z,28.50
2022-08-03T08:05:31.323Z,28.60
2022-08-03T08:08:00.501Z,28.70
2022-08-03T08:10:31.493Z,28.80
2022-08-03T08:13:00.163Z,28.90
2022-08-03T08:15:29.089Z,28.90
2022-08-03T08:17:59.694Z,29.00
2022-08-03T08:20:31.422Z,29.10
2022-08-03T08:23:01.246Z,29.10
2022-08-03T08:25:32.279Z,29.20
2022-08-03T08:28:29.507Z,29.30
2022-08-03T08:30:51.984Z,29.40
2022-08-03T08:33:23.593Z,29.40
2022-08-03T08:35:53.558Z,29.50
2022-08-03T08:38:22.276Z,29.60
2022-08-03T08:40:52.435Z,29.60
2022-08-03T08:43:21.069Z,29.70
2022-08-03T08:45:51.018Z,29.80
2022-08-03T08:48:22.395Z,29.80
2022-08-03T08:50:53.802Z,29.90
2022-08-03T08:53:27.362Z,30.00
2022-08-03T08:56:01.386Z,30.10
2022-08-03T08:58:31.218Z,30.20
2022-08-03T09:01:00.094Z,30.30
2022-08-03T09:03:30.081Z,30.40
2022-08-03T09:06:00.767Z,30.50
2022-08-03T09:08:30.396Z,30.60
2022-08-03T09:11:00.538Z,30.70
2022-08-03T09:13:29.391Z,30.80
2022-08-03T09:16:13.910Z,30.90
2022-08-03T09:18:43.107Z,30.90
2022-08-03T09:21:30.772Z,31.10
2022-08-03T09:24:03.866Z,31.20
2022-08-03T09:26:35.322Z,31.30
2022-08-03T09:29:09.562Z,31.40
2022-08-03T09:31:43.454Z,31.50
2022-08-03T09:34:13.337Z,31.60
2022-08-03T09:36:43.154Z,31.60
2022-08-03T09:39:12.362Z,31.80
2022-08-03T09:41:42.925Z,31.80
2022-08-03T09:44:35.484Z,31.90
2022-08-03T09:47:04.175Z,31.90
2022-08-03T09:49:33.195Z,32.00
2022-08-03T09:52:31.584Z,32.00
2022-08-03T09:54:53.051Z,32.10
2022-08-03T09:57:24.290Z,32.20
2022-08-03T10:00:01.912Z,32.20
2022-08-03T10:02:41.056Z,32.40
2022-08-03T10:05:10.887Z,32.30
2022-08-03T10:07:49.892Z,32.40
2022-08-03T10:10:28.943Z,32.40
2022-08-03T10:13:02.499Z,32.60
2022-08-03T10:16:21.484Z,32.70
2022-08-03T10:18:19.934Z,32.70
2022-08-03T10:20:51.081Z,32.70
2022-08-03T10:23:20.333Z,32.70
2022-08-03T10:25:49.417Z,32.80
2022-08-03T10:28:42.965Z,32.80
2022-08-03T10:31:14.608Z,32.90
2022-08-03T10:33:49.472Z,32.90
2022-08-03T10:36:23.130Z,32.90
2022-08-03T10:38:53.870Z,33.00
2022-08-03T10:41:23.103Z,33.10
2022-08-03T10:43:58.123Z,33.20
2022-08-03T10:46:27.863Z,33.20
2022-08-03T10:48:56.965Z,33.20
2022-08-03T10:51:29.404Z,33.20
2022-08-03T10:53:58.003Z,33.30
2022-08-03T10:56:58.379Z,33.40
2022-08-03T10:59:50.389Z,33.40
2022-08-03T11:02:20.739Z,33.50
2022-08-03T11:05:09.399Z,33.70
2022-08-03T11:07:38.013Z,33.80
2022-08-03T11:10:10.538Z,33.90
2022-08-03T11:12:39.491Z,34.00
2022-08-03T11:15:08.998Z,34.00
2022-08-03T11:17:46.495Z,34.20
2022-08-03T11:20:46.542Z,34.30
2022-08-03T11:23:15.412Z,34.70
2022-08-03T11:26:02.142Z,35.00
2022-08-03T11:28:30.985Z,35.20
2022-08-03T11:31:48.761Z,35.30
2022-08-03T11:34:15.578Z,35.40
2022-08-03T11:37:02.698Z,35.70
2022-08-03T11:39:39.763Z,35.80
2022-08-03T11:42:27.680Z,35.90
2022-08-03T11:44:57.011Z,36.00
2022-08-03T11:47:27.258Z,36.10
2022-08-03T11:49:59.319Z,36.20
2022-08-03T11:52:29.009Z,36.20
2022-08-03T11:54:57.690Z,36.20
2022-08-03T11:59:11.241Z,36.20
2022-08-03T12:00:37.743Z,36.30
2022-08-03T12:03:07.977Z,36.40
2022-08-03T12:05:51.174Z,36.40
2022-08-03T12:08:31.368Z,36.50
2022-08-03T12:11:00.877Z,36.60
2022-08-03T12:14:05.755Z,36.70
2022-08-03T12:16:28.969Z,36.70
2022-08-03T12:18:58.234Z,36.60
2022-08-03T12:21:28.603Z,36.50
2022-08-03T12:24:00.972Z,36.50
2022-08-03T12:26:29.777Z,36.50
2022-08-03T12:28:58.534Z,36.40
2022-08-03T12:31:27.231Z,36.10
2022-08-03T12:34:00.110Z,36.00
2022-08-03T12:36:30.844Z,35.90
2022-08-03T12:39:00.359Z,35.80
2022-08-03T12:41:30.036Z,35.70
2022-08-03T12:43:58.663Z,35.80
2022-08-03T12:46:31.520Z,35.90
2022-08-03T12:49:19.311Z,35.90
2022-08-03T12:52:02.843Z,35.90
2022-08-03T12:54:36.306Z,36.00
2022-08-03T12:57:06.204Z,36.10
2022-08-03T12:59:41.149Z,36.20
2022-08-03T13:02:16.669Z,36.30
2022-08-03T13:04:47.927Z,36.40
2022-08-03T13:07:19.533Z,36.40
2022-08-03T13:09:49.741Z,36.50
2022-08-03T13:12:18.658Z,36.60
2022-08-03T13:14:47.680Z,36.80
2022-08-03T13:17:17.002Z,36.70
2022-08-03T13:19:46.107Z,36.60
2022-08-03T13:22:15.510Z,36.30
2022-08-03T13:24:46.536Z,36.00
2022-08-03T13:28:02.086Z,35.80
2022-08-03T13:30:04.282Z,35.70
2022-08-03T13:32:32.885Z,35.60
2022-08-03T13:35:02.718Z,35.40
2022-08-03T13:37:32.497Z,35.20
2022-08-03T13:40:04.585Z,35.10
2022-08-03T13:42:35.037Z,35.00
2022-08-03T13:45:04.024Z,34.80
2022-08-03T13:47:32.610Z,34.60
2022-08-03T13:50:03.160Z,34.50
2022-08-03T13:52:33.097Z,34.30
2022-08-03T13:55:03.490Z,34.20
2022-08-03T13:58:03.079Z,34.10
2022-08-03T14:00:27.251Z,34.00
2022-08-03T14:03:14.901Z,33.90
2022-08-03T14:05:44.248Z,33.90
2022-08-03T14:08:13.397Z,33.80
2022-08-03T14:10:44.775Z,33.70
2022-08-03T14:13:17.703Z,33.70
2022-08-03T14:15:49.830Z,33.50
2022-08-03T14:18:29.093Z,33.40
2022-08-03T14:21:05.793Z,33.40
2022-08-03T14:23:35.505Z,33.30
2022-08-03T14:26:05.471Z,33.30
2022-08-03T14:28:34.216Z,33.20
2022-08-03T14:31:03.089Z,33.20
2022-08-03T14:33:31.770Z,33.10
2022-08-03T14:36:00.292Z,33.20
2022-08-03T14:38:28.953Z,33.10
2022-08-03T14:40:57.633Z,33.00
2022-08-03T14:43:33.872Z,33.00
2022-08-03T14:46:02.943Z,33.00
2022-08-03T14:50:33.159Z,32.90
2022-08-03T14:51:20.191Z,32.90
2022-08-03T14:53:48.722Z,32.80
2022-08-03T14:56:17.322Z,32.70
2022-08-03T14:58:47.331Z,32.70
2022-08-03T15:02:06.334Z,32.60
2022-08-03T15:04:04.646Z,32.60
2022-08-03T15:06:33.255Z,32.60
2022-08-03T15:11:50.593Z,32.50
2022-08-03T15:14:32.343Z,32.30
2022-08-03T15:17:02.273Z,32.20
2022-08-03T15:20:02.841Z,32.20
2022-08-03T15:22:40.541Z,32.10
2022-08-03T15:26:03.759Z,32.10
2022-08-03T15:28:04.076Z,32.00
2022-08-03T15:30:37.108Z,31.90
2022-08-03T15:33:24.156Z,31.80
2022-08-03T15:35:53.235Z,31.80
2022-08-03T15:38:25.801Z,31.70
2022-08-03T15:41:13.923Z,31.60
2022-08-03T15:43:47.748Z,31.50
2022-08-03T15:46:36.701Z,31.40
2022-08-03T15:49:05.346Z,31.30
2022-08-03T15:51:33.806Z,31.30
2022-08-03T15:54:02.548Z,31.20
2022-08-03T15:56:31.608Z,31.10
2022-08-03T15:59:11.573Z,31.10
2022-08-03T16:01:43.863Z,31.00
2022-08-03T16:04:12.522Z,30.80
2022-08-03T16:06:41.057Z,30.80
2022-08-03T16:09:23.775Z,30.80
2022-08-03T16:11:58.906Z,30.70
2022-08-03T16:14:31.386Z,30.60
2022-08-03T16:17:03.430Z,30.50
2022-08-03T16:19:32.103Z,30.40
2022-08-03T16:22:00.960Z,30.30
2022-08-03T16:24:29.636Z,30.30
2022-08-03T16:26:58.223Z,30.20
2022-08-03T16:29:29.970Z,30.20
2022-08-03T16:31:58.555Z,30.10
2022-08-03T16:34:28.512Z,30.00
2022-08-03T16:36:57.211Z,29.90
2022-08-03T16:39:25.755Z,29.80
2022-08-03T16:42:00.537Z,29.80
2022-08-03T16:44:30.916Z,29.70
2022-08-03T16:46:59.572Z,29.60
2022-08-03T16:49:54.055Z,29.60
2022-08-03T16:52:18.308Z,29.50
2022-08-03T16:54:52.829Z,29.50
2022-08-03T16:57:59.040Z,29.40
2022-08-03T17:00:32.911Z,29.30
2022-08-03T17:03:04.472Z,29.20
2022-08-03T17:05:47.974Z,29.20
2022-08-03T17:08:19.072Z,29.10
2022-08-03T17:10:56.105Z,29.10
2022-08-03T17:13:33.028Z,29.00
2022-08-03T17:16:10.309Z,29.00
2022-08-03T17:18:42.259Z,28.90
2022-08-03T17:21:18.870Z,28.80
2022-08-03T17:23:54.492Z,28.80
2022-08-03T17:26:30.399Z,28.80
2022-08-03T17:29:12.868Z,28.70
2022-08-03T17:32:13.928Z,28.60
2022-08-03T17:34:46.788Z,28.60
2022-08-03T17:37:26.979Z,28.50
2022-08-03T17:40:25.083Z,28.50
2022-08-03T17:42:54.682Z,28.30
2022-08-03T17:45:23.926Z,28.40
2022-08-03T17:48:12.646Z,28.30
2022-08-03T17:50:50.233Z,28.30
2022-08-03T17:53:25.016Z,28.30
2022-08-03T17:56:04.388Z,28.20
2022-08-03T17:58:57.195Z,28.20
2022-08-03T18:02:03.696Z,28.10
2022-08-03T18:04:55.371Z,28.10
2022-08-03T18:07:41.209Z,28.10
2022-08-03T18:10:31.301Z,28.00
2022-08-03T18:13:04.339Z,27.90
2022-08-03T18:15:41.317Z,27.90
2022-08-03T18:18:11.215Z,27.90
2022-08-03T18:20:42.343Z,27.90
2022-08-03T18:23:11.635Z,27.80
2022-08-03T18:25:59.071Z,27.80
2022-08-03T18:28:28.764Z,27.70
2022-08-03T18:30:57.858Z,27.70
2022-08-03T18:34:16.563Z,27.70
2022-08-03T18:36:29.483Z,27.70
2022-08-03T18:38:59.828Z,27.70
2022-08-03T18:41:33.357Z,27.60
2022-08-03T18:44:07.900Z,27.60
2022-08-03T18:46:43.024Z,27.50
2022-08-03T18:49:37.761Z,27.50
2022-08-03T18:52:12.291Z,27.40
2022-08-03T18:54:51.808Z,27.40
2022-08-03T18:57:38.123Z,27.40
2022-08-03T19:00:10.524Z,27.40
2022-08-03T19:02:48.931Z,27.30
2022-08-03T19:05:19.555Z,27.30
2022-08-03T19:07:58.461Z,27.30
2022-08-03T19:10:32.132Z,27.20
2022-08-03T19:13:04.864Z,27.20
2022-08-03T19:15:51.220Z,27.20
2022-08-03T19:18:22.027Z,27.10
2022-08-03T19:20:51.469Z,27.10
2022-08-03T19:23:24.599Z,27.10
2022-08-03T19:25:53.771Z,27.00
2022-08-03T19:28:29.634Z,27.00
2022-08-03T19:31:02.754Z,26.90
2022-08-03T19:33:57.243Z,26.90
2022-08-03T19:36:27.293Z,26.90
2022-08-03T19:38:57.103Z,26.80
2022-08-03T19:41:26.052Z,26.80
2022-08-03T19:44:04.437Z,26.80
2022-08-03T19:46:35.423Z,26.70
2022-08-03T19:49:57.051Z,26.70
2022-08-03T19:52:20.537Z,26.70
2022-08-03T19:54:53.929Z,26.70
2022-08-03T19:57:24.426Z,26.70
2022-08-03T19:59:55.628Z,26.60
2022-08-03T20:05:15.349Z,26.60
2022-08-03T20:07:47.655Z,26.60
2022-08-03T20:10:17.522Z,26.60
2022-08-03T20:12:47.113Z,26.60
2022-08-03T20:15:18.032Z,26.50
2022-08-03T20:17:56.019Z,26.50
2022-08-03T20:20:28.242Z,26.50
2022-08-03T20:22:58.737Z,26.50
2022-08-03T20:25:38.817Z,26.50
2022-08-03T20:28:14.259Z,26.50
2022-08-03T20:30:46.364Z,26.40
2022-08-03T20:33:19.076Z,26.40
2022-08-03T20:35:49.142Z,26.40
2022-08-03T20:38:18.930Z,26.30
2022-08-03T20:40:48.501Z,26.30
2022-08-03T20:43:20.024Z,26.30
2022-08-03T20:46:32.745Z,26.30
2022-08-03T20:48:58.917Z,26.10
2022-08-03T20:51:50.183Z,26.20
2022-08-03T20:54:37.951Z,26.20
2022-08-03T20:57:09.562Z,26.10
2022-08-03T20:59:50.000Z,26.10
2022-08-03T21:02:29.471Z,26.00
2022-08-03T21:05:03.693Z,26.00
2022-08-03T21:08:06.332Z,25.90
2022-08-03T21:10:38.218Z,25.90
2022-08-03T21:13:09.823Z,26.60
2022-08-03T21:13:17.013Z,25.90
2022-08-03T21:16:03.333Z,25.80
2022-08-03T21:18:42.834Z,25.80
2022-08-03T21:21:13.174Z,25.80
2022-08-03T21:23:48.000Z,25.70
2022-08-03T21:26:18.830Z,25.80
2022-08-03T21:28:48.115Z,25.70
2022-08-03T21:31:24.501Z,25.70
2022-08-03T21:34:14.972Z,25.60
2022-08-03T21:36:43.695Z,25.60
2022-08-03T21:39:12.241Z,25.60
2022-08-03T21:41:41.475Z,25.60
2022-08-03T21:44:11.613Z,25.60
2022-08-03T21:46:41.291Z,25.60
2022-08-03T21:50:04.097Z,25.50
2022-08-03T21:52:02.412Z,25.50
2022-08-03T21:54:36.513Z,25.50
2022-08-03T21:57:06.894Z,25.40
2022-08-03T21:59:38.298Z,25.40
2022-08-03T22:02:22.613Z,25.40
2022-08-03T22:04:56.960Z,25.40
2022-08-03T22:07:28.439Z,25.40
2022-08-03T22:09:57.373Z,25.40
2022-08-03T22:12:26.363Z,25.40
2022-08-03T22:15:00.985Z,25.40
2022-08-03T22:17:55.758Z,25.40
2022-08-03T22:20:26.009Z,25.40
2022-08-03T22:22:57.113Z,25.40
2022-08-03T22:25:27.623Z,25.30
2022-08-03T22:27:56.394Z,25.30
2022-08-03T22:30:24.972Z,25.30
2022-08-03T22:32:54.658Z,25.40
2022-08-03T22:35:25.220Z,25.30
2022-08-03T22:37:56.029Z,25.30
2022-08-03T22:40:24.661Z,25.30
2022-08-03T22:42:53.397Z,25.30
2022-08-03T22:45:45.857Z,25.20
2022-08-03T22:48:11.976Z,25.20
2022-08-03T22:50:40.673Z,25.20
2022-08-03T22:53:10.984Z,25.20
2022-08-03T22:55:39.662Z,25.20
2022-08-03T22:58:08.203Z,25.10
2022-08-03T23:00:37.362Z,25.10
2022-08-03T23:03:07.625Z,25.10
2022-08-03T23:06:00.476Z,25.00
2022-08-03T23:08:47.722Z,25.00
2022-08-03T23:11:18.556Z,25.00
2022-08-03T23:13:48.180Z,25.00
2022-08-03T23:16:29.046Z,24.90
2022-08-03T23:19:25.700Z,25.00
2022-08-03T23:22:02.571Z,24.90
2022-08-03T23:24:37.247Z,24.90
2022-08-03T23:27:06.335Z,24.90
2022-08-03T23:29:35.742Z,24.90
2022-08-03T23:32:22.613Z,24.90
2022-08-03T23:35:09.577Z,24.90
2022-08-03T23:38:04.388Z,24.90
2022-08-03T23:40:31.281Z,24.90
2022-08-03T23:43:00.732Z,24.80
2022-08-03T23:45:29.620Z,24.80
2022-08-03T23:47:58.138Z,24.80
2022-08-03T23:50:28.530Z,24.80
2022-08-03T23:53:04.300Z,24.70
2022-08-03T23:55:41.878Z,24.70
2022-08-03T23:58:18.959Z,24.70
